createdAt,value
2023-02-26T05:00:31.631Z,0.18
2023-02-26T05:01:31.651Z,0.26
2023-02-26T05:02:31.572Z,0.28
2023-02-26T05:03:31.547Z,0.23
2023-02-26T05:04:31.595Z,0.18
2023-02-26T05:05:31.526Z,0.29
2023-02-26T05:06:31.537Z,0.24
2023-02-26T05:07:31.519Z,0.21
2023-02-26T05:08:31.505Z,0.18
2023-02-26T05:09:31.498Z,0.14
2023-02-26T05:10:31.497Z,0.11
2023-02-26T05:11:36.534Z,0.02
2023-02-26T05:12:31.461Z,0.10
2023-02-26T05:13:31.550Z,0.08
2023-02-26T05:14:31.452Z,0.08
2023-02-26T05:15:31.446Z,0.13
2023-02-26T05:16:31.659Z,0.14
2023-02-26T05:17:31.401Z,0.03
2023-02-26T05:18:31.392Z,0.11
2023-02-26T05:19:31.389Z,0.02
2023-02-26T05:20:31.394Z,0.14
2023-02-26T05:21:31.407Z,0.11
2023-02-26T05:22:36.381Z,0.10
2023-02-26T05:23:31.360Z,0.08
2023-02-26T05:24:31.396Z,0.02
2023-02-26T05:25:31.537Z,0.03
2023-02-26T05:26:31.396Z,0.08
2023-02-26T05:27:31.298Z,0.07
2023-02-26T05:28:31.297Z,0.11
2023-02-26T05:29:31.278Z,0.02
2023-02-26T05:30:31.336Z,0.07
2023-02-26T05:31:31.367Z,0.03
2023-02-26T05:32:31.268Z,-0.05
2023-02-26T05:33:36.295Z,-0.01
2023-02-26T05:34:31.222Z,-0.01
2023-02-26T05:35:31.230Z,-0.07
2023-02-26T05:36:31.228Z,-0.03
2023-02-26T05:37:31.188Z,-0.01
2023-02-26T05:38:31.195Z,-0.07
2023-02-26T05:39:32.661Z,-0.08
2023-02-26T05:40:31.772Z,-0.10
2023-02-26T05:41:33.964Z,-0.16
2023-02-26T05:42:31.136Z,-0.10
2023-02-26T05:43:31.142Z,-0.11
2023-02-26T05:44:36.142Z,-0.07
2023-02-26T05:45:31.100Z,-0.07
2023-02-26T05:46:31.128Z,-0.14
2023-02-26T05:47:31.115Z,-0.10
2023-02-26T05:48:31.082Z,-0.15
2023-02-26T05:49:31.056Z,-0.10
2023-02-26T05:50:31.054Z,-0.10
2023-02-26T05:51:31.092Z,-0.15
2023-02-26T05:52:31.021Z,-0.14
2023-02-26T05:53:31.026Z,-0.08
2023-02-26T05:54:31.052Z,-0.08
2023-02-26T05:55:36.043Z,-0.14
2023-02-26T05:56:31.064Z,-0.19
2023-02-26T05:57:31.062Z,-0.16
2023-02-26T05:58:30.946Z,-0.18
2023-02-26T05:59:30.950Z,-0.19
2023-02-26T06:00:30.983Z,-0.21
2023-02-26T06:01:31.023Z,-0.22
2023-02-26T06:02:30.906Z,-0.21
2023-02-26T06:03:30.958Z,-0.25
2023-02-26T06:04:30.905Z,-0.22
2023-02-26T06:05:30.904Z,-0.25
2023-02-26T06:06:35.919Z,-0.22
2023-02-26T06:07:30.852Z,-0.23
2023-02-26T06:08:30.913Z,-0.22
2023-02-26T06:09:30.855Z,-0.22
2023-02-26T06:10:30.816Z,-0.21
2023-02-26T06:11:33.024Z,-0.26
2023-02-26T06:12:30.795Z,-0.28
2023-02-26T06:13:30.786Z,-0.26
2023-02-26T06:14:30.780Z,-0.22
2023-02-26T06:15:30.788Z,-0.18
2023-02-26T06:16:30.849Z,-0.19
2023-02-26T06:17:35.778Z,-0.15
2023-02-26T06:18:30.724Z,-0.14
2023-02-26T06:19:30.728Z,-0.15
2023-02-26T06:20:30.750Z,-0.08
2023-02-26T06:21:30.740Z,-0.16
2023-02-26T06:22:30.684Z,-0.18
2023-02-26T06:23:30.678Z,-0.19
2023-02-26T06:24:30.658Z,-0.26
2023-02-26T06:25:30.665Z,-0.21
2023-02-26T06:26:30.670Z,-0.16
2023-02-26T06:27:30.629Z,-0.19
2023-02-26T06:28:35.648Z,-0.07
2023-02-26T06:29:30.613Z,-0.16
2023-02-26T06:30:30.635Z,-0.10
2023-02-26T06:31:30.664Z,-0.15
2023-02-26T06:32:30.934Z,-0.14
2023-02-26T06:33:30.572Z,-0.14
2023-02-26T06:34:30.566Z,-0.21
2023-02-26T06:35:30.572Z,-0.22
2023-02-26T06:36:30.557Z,-0.15
2023-02-26T06:37:30.563Z,-0.10
2023-02-26T06:38:30.585Z,-0.10
2023-02-26T06:39:35.524Z,-0.11
2023-02-26T06:40:30.489Z,-0.18
2023-02-26T06:41:30.497Z,-0.16
2023-02-26T06:42:30.511Z,-0.10
2023-02-26T06:43:30.456Z,-0.15
2023-02-26T06:44:30.597Z,-0.19
2023-02-26T06:45:30.443Z,-0.04
2023-02-26T06:46:30.458Z,-0.10
2023-02-26T06:47:30.585Z,-0.07
2023-02-26T06:48:30.424Z,-0.15
2023-02-26T06:49:30.390Z,-0.05
2023-02-26T06:50:35.416Z,-0.01
2023-02-26T06:51:30.373Z,-0.04
2023-02-26T06:52:30.477Z,-0.08
2023-02-26T06:53:30.359Z,-0.07
2023-02-26T06:54:30.371Z,-0.04
2023-02-26T06:55:30.406Z,-0.07
2023-02-26T06:56:30.383Z,-0.03
2023-02-26T06:57:30.343Z,-0.03
2023-02-26T06:58:30.298Z,0.02
2023-02-26T06:59:30.330Z,-0.01
2023-02-26T07:00:30.330Z,-0.01
2023-02-26T07:01:35.315Z,-0.01
2023-02-26T07:02:30.389Z,0.11
2023-02-26T07:03:30.278Z,0.10
2023-02-26T07:04:30.228Z,-0.04
2023-02-26T07:05:30.214Z,0.11
2023-02-26T07:06:30.233Z,-0.01
2023-02-26T07:07:30.221Z,0.07
2023-02-26T07:08:30.212Z,-0.01
2023-02-26T07:09:30.175Z,0.04
2023-02-26T07:10:30.158Z,0.07
2023-02-26T07:11:30.175Z,0.04
2023-02-26T07:12:35.190Z,0.00
2023-02-26T07:13:30.162Z,-0.01
2023-02-26T07:14:30.147Z,-0.07
2023-02-26T07:15:30.129Z,0.02
2023-02-26T07:16:30.179Z,-0.03
2023-02-26T07:17:30.125Z,0.04
2023-02-26T07:18:30.084Z,0.07
2023-02-26T07:19:30.085Z,-0.04
2023-02-26T07:20:30.072Z,0.04
2023-02-26T07:21:30.069Z,0.07
2023-02-26T07:22:30.170Z,0.10
2023-02-26T07:23:35.057Z,0.00
2023-02-26T07:24:30.023Z,0.07
2023-02-26T07:25:30.145Z,0.14
2023-02-26T07:26:29.987Z,0.14
2023-02-26T07:27:30.084Z,0.13
2023-02-26T07:28:30.212Z,0.15
2023-02-26T07:29:30.311Z,0.26
2023-02-26T07:30:30.949Z,0.35
2023-02-26T07:31:31.322Z,0.36
2023-02-26T07:32:30.509Z,0.39
2023-02-26T07:33:29.926Z,0.47
2023-02-26T07:34:34.953Z,0.49
2023-02-26T07:35:29.889Z,0.50
2023-02-26T07:36:29.888Z,0.51
2023-02-26T07:37:30.200Z,0.53
2023-02-26T07:38:29.864Z,0.57
2023-02-26T07:39:29.892Z,0.58
2023-02-26T07:40:29.886Z,0.55
2023-02-26T07:41:30.008Z,0.61
2023-02-26T07:42:30.251Z,0.60
2023-02-26T07:43:29.978Z,0.55
2023-02-26T07:44:29.784Z,0.51
2023-02-26T07:45:34.881Z,0.51
2023-02-26T07:46:29.850Z,0.66
2023-02-26T07:47:29.815Z,0.60
2023-02-26T07:48:29.828Z,0.76
2023-02-26T07:49:29.778Z,0.75
2023-02-26T07:50:29.804Z,0.70
2023-02-26T07:51:32.239Z,0.70
2023-02-26T07:52:29.721Z,0.87
2023-02-26T07:53:29.691Z,0.88
2023-02-26T07:54:29.691Z,0.96
2023-02-26T07:55:29.696Z,0.90
2023-02-26T07:56:34.709Z,0.96
2023-02-26T07:57:29.711Z,1.00
2023-02-26T07:58:29.630Z,0.86
2023-02-26T07:59:29.645Z,1.06
2023-02-26T08:00:29.618Z,0.93
2023-02-26T08:01:29.722Z,0.97
2023-02-26T08:02:29.853Z,1.02
2023-02-26T08:03:29.640Z,0.94
2023-02-26T08:04:29.899Z,0.90
2023-02-26T08:05:30.223Z,0.97
2023-02-26T08:06:29.685Z,1.05
2023-02-26T08:07:34.666Z,1.06
2023-02-26T08:08:29.575Z,0.93
2023-02-26T08:09:29.742Z,1.04
2023-02-26T08:10:29.602Z,1.04
2023-02-26T08:11:29.736Z,0.94
2023-02-26T08:12:29.753Z,0.93
2023-02-26T08:13:29.616Z,1.00
2023-02-26T08:14:29.573Z,0.97
2023-02-26T08:15:29.819Z,0.97
2023-02-26T08:16:29.499Z,0.98
2023-02-26T08:17:29.501Z,1.05
2023-02-26T08:18:34.664Z,0.94
2023-02-26T08:19:29.480Z,1.02
2023-02-26T08:20:29.465Z,1.16
2023-02-26T08:21:29.416Z,1.16
2023-02-26T08:22:29.655Z,1.20
2023-02-26T08:23:29.395Z,1.33
2023-02-26T08:24:29.361Z,1.32
2023-02-26T08:25:29.426Z,1.32
2023-02-26T08:26:29.353Z,1.37
2023-02-26T08:27:29.334Z,1.41
2023-02-26T08:28:29.450Z,1.52
2023-02-26T08:29:34.323Z,1.58
2023-02-26T08:30:29.283Z,1.60
2023-02-26T08:31:29.416Z,1.70
2023-02-26T08:32:29.414Z,1.70
2023-02-26T08:33:29.369Z,1.73
2023-02-26T08:34:29.292Z,1.79
2023-02-26T08:35:29.251Z,1.79
2023-02-26T08:36:29.233Z,1.77
2023-02-26T08:37:29.218Z,1.81
2023-02-26T08:38:29.240Z,1.84
2023-02-26T08:39:29.173Z,1.93
2023-02-26T08:40:34.196Z,1.93
2023-02-26T08:41:29.177Z,1.93
2023-02-26T08:42:29.169Z,1.99
2023-02-26T08:43:29.192Z,2.00
2023-02-26T08:44:29.125Z,2.12
2023-02-26T08:45:29.104Z,2.20
2023-02-26T08:46:29.619Z,2.12
2023-02-26T08:47:29.382Z,2.23
2023-02-26T08:48:29.119Z,2.60
2023-02-26T08:49:29.065Z,3.08
2023-02-26T08:50:29.160Z,3.50
2023-02-26T08:51:34.069Z,3.57
2023-02-26T09:54:41.797Z,3.94
2023-02-26T10:00:10.527Z,3.98
2023-02-26T10:01:10.497Z,3.73
2023-02-26T10:02:10.537Z,3.66
2023-02-26T10:03:10.466Z,3.61
2023-02-26T10:04:10.563Z,3.52
2023-02-26T10:05:10.441Z,3.47
2023-02-26T10:06:10.437Z,3.50
2023-02-26T10:07:10.442Z,3.62
2023-02-26T10:08:10.415Z,3.69
2023-02-26T10:09:10.403Z,3.78
2023-02-26T10:10:10.434Z,4.09
2023-02-26T10:11:15.401Z,4.54
2023-02-26T10:12:10.374Z,4.32
2023-02-26T10:13:10.389Z,4.42
2023-02-26T10:14:10.380Z,4.44
2023-02-26T10:15:10.397Z,4.24
2023-02-26T10:16:12.534Z,4.20
2023-02-26T10:17:10.333Z,4.14
2023-02-26T10:18:10.340Z,4.16
2023-02-26T10:19:10.317Z,4.29
2023-02-26T10:20:10.333Z,4.30
2023-02-26T10:21:10.280Z,4.37
2023-02-26T10:22:15.295Z,4.34
2023-02-26T10:23:10.256Z,4.16
2023-02-26T10:24:10.255Z,4.08
2023-02-26T10:25:10.283Z,3.90
2023-02-26T10:26:10.235Z,4.09
2023-02-26T10:27:10.214Z,4.20
2023-02-26T10:28:10.199Z,4.42
2023-02-26T10:29:10.193Z,4.32
2023-02-26T10:30:10.199Z,4.37
2023-02-26T10:31:10.211Z,4.32
2023-02-26T10:32:10.276Z,4.34
2023-02-26T10:33:15.194Z,4.40
2023-02-26T10:34:10.131Z,4.50
2023-02-26T10:35:10.167Z,4.44
2023-02-26T10:36:10.191Z,4.37
2023-02-26T10:37:10.114Z,4.16
2023-02-26T10:38:10.086Z,4.15
2023-02-26T10:39:10.271Z,4.33
2023-02-26T10:40:10.080Z,4.37
2023-02-26T10:41:10.161Z,4.30
2023-02-26T10:42:10.092Z,4.70
2023-02-26T10:43:10.037Z,4.92
2023-02-26T10:44:15.079Z,4.82
2023-02-26T10:45:09.999Z,4.70
2023-02-26T10:46:10.186Z,4.65
2023-02-26T10:47:10.001Z,4.45
2023-02-26T10:48:09.983Z,4.62
2023-02-26T10:49:09.964Z,4.67
2023-02-26T10:50:09.950Z,5.46
2023-02-26T10:51:09.988Z,5.65
2023-02-26T10:52:10.242Z,5.72
2023-02-26T10:53:09.913Z,5.63
2023-02-26T10:54:09.905Z,5.18
2023-02-26T10:55:14.909Z,4.91
2023-02-26T10:56:09.908Z,4.58
2023-02-26T10:57:09.886Z,4.63
2023-02-26T10:58:09.878Z,4.55
2023-02-26T10:59:09.904Z,4.47
2023-02-26T11:00:09.905Z,4.41
2023-02-26T11:01:09.883Z,4.48
2023-02-26T11:02:09.940Z,4.84
2023-02-26T11:03:09.803Z,5.49
2023-02-26T11:04:09.840Z,6.08
2023-02-26T11:05:09.786Z,5.76
2023-02-26T11:06:15.132Z,5.45
2023-02-26T11:07:09.802Z,5.13
2023-02-26T11:08:11.297Z,5.18
2023-02-26T11:09:09.734Z,4.97
2023-02-26T11:10:09.722Z,4.80
2023-02-26T11:11:09.728Z,5.09
2023-02-26T11:12:09.705Z,5.06
2023-02-26T11:13:09.690Z,5.13
2023-02-26T11:14:09.714Z,5.35
2023-02-26T11:15:09.672Z,5.30
2023-02-26T11:16:09.692Z,5.27
2023-02-26T11:17:14.673Z,5.21
2023-02-26T11:18:09.634Z,5.36
2023-02-26T11:19:09.624Z,5.35
2023-02-26T11:20:09.616Z,5.48
2023-02-26T11:21:09.616Z,5.49
2023-02-26T11:22:09.596Z,5.27
2023-02-26T11:23:09.580Z,5.33
2023-02-26T11:24:09.567Z,5.21
2023-02-26T11:25:09.557Z,5.24
2023-02-26T11:26:09.557Z,4.84
2023-02-26T11:27:09.533Z,4.94
2023-02-26T11:28:14.545Z,4.85
2023-02-26T11:29:09.509Z,5.03
2023-02-26T11:30:09.520Z,5.24
2023-02-26T11:31:09.582Z,5.53
2023-02-26T11:32:09.599Z,5.33
2023-02-26T11:33:09.466Z,5.28
2023-02-26T11:34:09.459Z,5.49
2023-02-26T11:35:09.441Z,5.53
2023-02-26T11:36:09.446Z,5.20
2023-02-26T11:37:09.432Z,4.75
2023-02-26T11:38:09.448Z,4.51
2023-02-26T11:39:14.420Z,4.48
2023-02-26T11:40:09.415Z,4.51
2023-02-26T11:41:09.396Z,4.60
2023-02-26T11:42:09.453Z,4.51
2023-02-26T11:43:09.369Z,4.78
2023-02-26T11:44:09.377Z,4.80
2023-02-26T11:50:54.105Z,5.07
2023-02-26T11:51:54.033Z,4.94
2023-02-26T11:52:54.010Z,5.17
2023-02-26T11:53:54.006Z,5.10
2023-02-26T12:12:13.190Z,4.91
2023-02-26T12:13:13.015Z,4.92
2023-02-26T12:14:13.008Z,4.96
2023-02-26T12:15:12.997Z,4.92
2023-02-26T12:16:13.051Z,4.92
2023-02-26T12:17:12.982Z,4.85
2023-02-26T12:18:15.604Z,4.80
2023-02-26T12:19:12.949Z,4.77
2023-02-26T12:20:12.936Z,4.66
2023-02-26T12:21:12.926Z,4.60
2023-02-26T12:22:12.947Z,4.66
2023-02-26T12:23:17.924Z,4.65
2023-02-26T12:24:12.891Z,4.55
2023-02-26T12:25:12.883Z,4.41
2023-02-26T12:26:12.869Z,4.37
2023-02-26T12:27:12.887Z,4.48
2023-02-26T12:28:12.868Z,4.41
2023-02-26T12:29:12.849Z,4.30
2023-02-26T12:30:12.824Z,4.40
2023-02-26T12:31:12.939Z,4.34
2023-02-26T12:32:12.934Z,4.32
2023-02-26T12:33:12.796Z,4.34
2023-02-26T12:34:17.809Z,4.44
2023-02-26T12:35:12.773Z,4.45
2023-02-26T12:36:12.762Z,4.44
2023-02-26T12:37:12.761Z,4.47
2023-02-26T12:38:15.104Z,4.48
2023-02-26T12:39:12.735Z,4.41
2023-02-26T12:40:12.716Z,4.42
2023-02-26T12:41:12.707Z,4.44
2023-02-26T12:42:12.704Z,4.48
2023-02-26T12:43:12.702Z,4.50
2023-02-26T12:44:12.713Z,4.48
2023-02-26T12:45:17.685Z,4.55
2023-02-26T12:46:12.727Z,4.55
2023-02-26T12:47:12.664Z,4.69
2023-02-26T12:48:12.636Z,4.82
2023-02-26T12:49:12.617Z,4.85
2023-02-26T12:50:12.604Z,4.96
2023-02-26T12:51:12.606Z,4.92
2023-02-26T12:52:12.594Z,5.45
2023-02-26T12:53:12.581Z,5.93
2023-02-26T12:54:12.559Z,6.81
2023-02-26T12:55:12.549Z,7.82
2023-02-26T12:56:17.559Z,7.48
2023-02-26T12:57:12.528Z,7.12
2023-02-26T12:58:12.535Z,6.92
2023-02-26T12:59:12.507Z,6.84
2023-02-26T13:00:12.514Z,6.62
2023-02-26T13:01:12.523Z,6.56
2023-02-26T13:02:12.473Z,6.31
2023-02-26T13:03:12.475Z,5.91
2023-02-26T13:04:12.487Z,6.21
2023-02-26T13:05:12.439Z,5.89
2023-02-26T13:06:12.427Z,5.89
2023-02-26T13:07:17.450Z,6.48
2023-02-26T13:08:12.416Z,6.91
2023-02-26T13:09:12.397Z,6.89
2023-02-26T13:10:12.384Z,7.31
2023-02-26T13:11:12.369Z,7.85
2023-02-26T13:12:12.380Z,8.08
2023-02-26T13:13:12.370Z,7.87
2023-02-26T13:14:12.337Z,7.64
2023-02-26T13:15:12.327Z,7.60
2023-02-26T13:16:12.357Z,7.30
2023-02-26T13:17:12.302Z,6.88
2023-02-26T13:18:17.325Z,6.46
2023-02-26T13:19:12.282Z,6.27
2023-02-26T13:20:12.266Z,5.79
2023-02-26T13:21:12.286Z,5.57
2023-02-26T13:22:12.250Z,5.42
2023-02-26T13:23:12.247Z,5.38
2023-02-26T13:24:12.223Z,5.40
2023-02-26T13:25:12.211Z,5.36
2023-02-26T13:26:12.200Z,5.38
2023-02-26T13:27:12.189Z,5.40
2023-02-26T13:28:12.187Z,5.49
2023-02-26T13:29:17.191Z,5.48
2023-02-26T13:30:12.153Z,5.43
2023-02-26T13:31:12.318Z,5.49
2023-02-26T13:32:12.271Z,5.49
2023-02-26T13:33:12.134Z,5.56
2023-02-26T13:34:12.108Z,5.46
2023-02-26T13:35:12.097Z,5.43
2023-02-26T13:36:12.086Z,5.42
2023-02-26T13:37:12.076Z,5.48
2023-02-26T13:38:12.073Z,5.40
2023-02-26T13:39:12.052Z,5.43
2023-02-26T13:40:17.061Z,5.22
2023-02-26T13:41:12.031Z,5.22
2023-02-26T13:42:12.019Z,5.15
2023-02-26T13:43:12.016Z,5.06
2023-02-26T13:44:12.005Z,5.03
2023-02-26T13:45:11.985Z,4.92
2023-02-26T13:46:12.095Z,5.02
2023-02-26T13:47:11.977Z,4.96
2023-02-26T13:48:12.052Z,5.07
2023-02-26T13:49:11.939Z,5.06
2023-02-26T13:50:11.930Z,5.03
2023-02-26T13:51:16.940Z,5.09
2023-02-26T13:52:11.900Z,5.02
2023-02-26T13:53:11.895Z,5.00
2023-02-26T13:54:11.891Z,5.06
2023-02-26T13:55:11.869Z,5.03
2023-02-26T13:56:11.858Z,4.96
2023-02-26T13:57:11.853Z,4.89
2023-02-26T13:58:11.842Z,4.89
2023-02-26T13:59:12.259Z,4.92
2023-02-26T14:00:11.813Z,5.02
2023-02-26T14:01:11.954Z,4.92
2023-02-26T14:02:16.838Z,4.92
2023-02-26T14:03:11.785Z,4.89
2023-02-26T14:04:11.806Z,4.86
2023-02-26T14:05:11.757Z,4.88
2023-02-26T14:06:11.750Z,4.92
2023-02-26T14:07:11.736Z,4.91
2023-02-26T14:08:11.725Z,4.86
2023-02-26T14:09:11.722Z,4.86
2023-02-26T14:10:11.703Z,4.67
2023-02-26T14:11:11.689Z,4.66
2023-02-26T14:12:11.685Z,4.78
2023-02-26T14:13:16.685Z,4.70
2023-02-26T14:14:11.666Z,4.75
2023-02-26T14:15:11.654Z,4.77
2023-02-26T14:16:11.816Z,4.77
2023-02-26T14:17:11.623Z,4.84
2023-02-26T14:18:11.629Z,4.89
2023-02-26T14:19:11.621Z,4.80
2023-02-26T14:20:11.624Z,4.80
2023-02-26T14:21:11.597Z,4.75
2023-02-26T14:22:11.582Z,4.75
2023-02-26T14:23:11.616Z,4.84
2023-02-26T14:24:16.623Z,4.84
2023-02-26T14:25:11.526Z,4.77
2023-02-26T14:26:11.532Z,4.73
2023-02-26T14:27:11.518Z,4.65
2023-02-26T14:28:11.496Z,4.59
2023-02-26T14:29:11.504Z,4.59
2023-02-26T14:30:11.470Z,4.67
2023-02-26T14:31:11.698Z,4.69
2023-02-26T14:32:11.656Z,4.73
2023-02-26T14:33:11.434Z,4.72
2023-02-26T14:34:11.440Z,4.72
2023-02-26T14:35:16.455Z,4.73
2023-02-26T14:36:11.402Z,4.72
2023-02-26T14:37:11.393Z,4.66
2023-02-26T14:38:11.381Z,4.67
2023-02-26T14:39:11.367Z,4.70
2023-02-26T14:40:11.368Z,4.75
2023-02-26T14:41:11.343Z,4.84
2023-02-26T14:42:11.335Z,4.91
2023-02-26T14:43:11.321Z,4.91
2023-02-26T14:44:11.310Z,4.96
2023-02-26T14:45:11.312Z,4.88
2023-02-26T14:46:16.363Z,4.91
2023-02-26T14:47:11.278Z,5.03
2023-02-26T14:48:11.268Z,5.06
2023-02-26T14:49:11.258Z,5.09
2023-02-26T14:50:11.271Z,5.10
2023-02-26T14:51:11.268Z,4.96
2023-02-26T14:52:11.224Z,4.92
2023-02-26T14:53:11.212Z,4.86
2023-02-26T14:54:11.203Z,4.91
2023-02-26T14:55:11.221Z,4.96
2023-02-26T14:56:11.185Z,4.91
2023-02-26T14:57:16.192Z,4.89
2023-02-26T14:58:11.157Z,4.67
2023-02-26T14:59:11.146Z,4.59
2023-02-26T15:00:11.145Z,4.58
2023-02-26T15:01:20.837Z,4.54
2023-02-26T15:02:12.271Z,4.60
2023-02-26T15:03:11.224Z,4.58
2023-02-26T15:04:11.094Z,4.58
2023-02-26T15:05:11.094Z,4.58
2023-02-26T15:06:11.069Z,4.52
2023-02-26T15:07:11.076Z,4.54
2023-02-26T15:08:16.071Z,4.62
2023-02-26T15:09:11.036Z,4.66
2023-02-26T15:10:11.038Z,4.58
2023-02-26T15:11:11.028Z,4.55
2023-02-26T15:12:11.001Z,4.52
2023-02-26T15:13:10.990Z,4.55
2023-02-26T15:14:10.988Z,4.47
2023-02-26T15:15:10.991Z,4.50
2023-02-26T15:16:11.049Z,4.51
2023-02-26T15:17:10.944Z,4.45
2023-02-26T15:18:10.937Z,4.44
2023-02-26T15:19:15.961Z,4.45
2023-02-26T15:20:10.912Z,4.41
2023-02-26T15:21:10.909Z,4.47
2023-02-26T15:22:10.889Z,4.33
2023-02-26T15:23:10.902Z,4.37
2023-02-26T15:24:10.869Z,4.30
2023-02-26T15:25:10.857Z,4.45
2023-02-26T15:26:10.854Z,4.42
2023-02-26T15:27:10.834Z,4.30
2023-02-26T15:28:10.848Z,4.37
2023-02-26T15:29:10.821Z,4.33
2023-02-26T15:30:15.836Z,4.29
2023-02-26T15:31:13.409Z,4.32
2023-02-26T15:32:10.895Z,4.36
2023-02-26T15:33:10.765Z,4.37
2023-02-26T15:34:10.758Z,4.42
2023-02-26T15:35:10.750Z,4.33
2023-02-26T15:36:10.743Z,4.32
2023-02-26T15:37:10.725Z,4.36
2023-02-26T15:38:10.711Z,4.32
2023-02-26T15:39:10.719Z,4.24
2023-02-26T15:40:10.691Z,4.16
2023-02-26T15:41:15.728Z,4.27
2023-02-26T15:42:10.668Z,4.29
2023-02-26T15:43:10.662Z,4.27
2023-02-26T15:44:10.670Z,4.34
2023-02-26T15:45:10.637Z,4.24
2023-02-26T15:46:10.704Z,4.16
2023-02-26T15:47:10.610Z,4.23
2023-02-26T15:48:10.598Z,4.16
2023-02-26T15:49:10.591Z,4.27
2023-02-26T15:50:10.575Z,4.20
2023-02-26T15:51:10.564Z,4.20
2023-02-26T15:52:15.605Z,4.18
2023-02-26T15:53:10.543Z,4.23
2023-02-26T15:54:10.529Z,4.30
2023-02-26T15:55:10.535Z,4.33
2023-02-26T15:56:10.509Z,4.36
2023-02-26T15:57:10.507Z,4.40
2023-02-26T15:58:10.555Z,4.34
2023-02-26T15:59:10.474Z,4.48
2023-02-26T16:00:10.522Z,4.45
2023-02-26T16:01:10.450Z,4.48
2023-02-26T16:02:10.449Z,4.48
2023-02-26T16:03:15.476Z,4.44
2023-02-26T16:04:10.417Z,4.32
2023-02-26T16:05:10.403Z,4.34
2023-02-26T16:06:10.398Z,4.41
2023-02-26T16:07:10.394Z,4.30
2023-02-26T16:08:10.385Z,4.37
2023-02-26T16:09:10.359Z,4.30
2023-02-26T16:10:10.349Z,4.33
2023-02-26T16:11:10.368Z,4.45
2023-02-26T16:12:10.336Z,4.32
2023-02-26T16:13:10.314Z,4.22
2023-02-26T16:14:15.324Z,4.18
2023-02-26T16:15:10.304Z,4.16
2023-02-26T16:16:10.330Z,4.11
2023-02-26T16:17:10.284Z,4.15
2023-02-26T16:18:10.268Z,4.11
2023-02-26T16:19:10.244Z,4.20
2023-02-26T16:20:11.092Z,4.20
2023-02-26T16:21:10.227Z,4.09
2023-02-26T16:22:10.224Z,4.15
2023-02-26T16:23:10.210Z,4.15
2023-02-26T16:24:10.192Z,4.04
2023-02-26T16:25:15.198Z,4.06
2023-02-26T16:26:10.167Z,3.98
2023-02-26T16:27:10.186Z,3.94
2023-02-26T16:28:10.146Z,4.08
2023-02-26T16:29:10.131Z,3.98
2023-02-26T16:30:10.136Z,4.05
2023-02-26T16:31:10.165Z,3.98
2023-02-26T16:32:10.237Z,3.91
2023-02-26T16:33:10.091Z,4.02
2023-02-26T16:34:10.075Z,3.97
2023-02-26T16:35:10.062Z,3.90
2023-02-26T16:36:15.074Z,3.97
2023-02-26T16:37:10.048Z,3.88
2023-02-26T16:38:10.030Z,3.83
2023-02-26T16:39:10.032Z,3.97
2023-02-26T16:40:10.005Z,3.91
2023-02-26T16:41:09.995Z,3.97
2023-02-26T16:42:09.987Z,3.91
2023-02-26T16:43:10.106Z,3.93
2023-02-26T16:44:09.959Z,3.94
2023-02-26T16:45:09.947Z,3.93
2023-02-26T16:46:09.935Z,3.97
2023-02-26T16:47:14.943Z,3.88
2023-02-26T16:48:09.921Z,3.88
2023-02-26T16:49:09.898Z,3.87
2023-02-26T16:50:09.939Z,3.96
2023-02-26T16:51:09.879Z,3.97
2023-02-26T16:52:09.874Z,3.97
2023-02-26T16:53:09.866Z,3.97
2023-02-26T16:54:09.854Z,4.02
2023-02-26T16:55:09.831Z,4.02
2023-02-26T16:56:09.820Z,4.05
2023-02-26T16:57:09.816Z,4.00
2023-02-26T16:58:14.846Z,4.02
2023-02-26T16:59:09.789Z,3.96
2023-02-26T17:00:09.780Z,3.88
2023-02-26T17:01:09.766Z,3.87
2023-02-26T17:02:09.754Z,3.93
2023-02-26T17:03:09.749Z,3.98
2023-02-26T17:04:09.805Z,3.94
2023-02-26T17:05:09.716Z,3.87
2023-02-26T17:06:09.709Z,3.88
2023-02-26T17:07:09.695Z,3.86
2023-02-26T17:08:09.700Z,3.96
2023-02-26T17:09:14.692Z,3.91
2023-02-26T17:10:09.673Z,3.96
2023-02-26T17:11:09.660Z,3.91
2023-02-26T17:12:09.639Z,3.97
2023-02-26T17:13:09.636Z,3.96
2023-02-26T17:14:09.671Z,3.94
2023-02-26T17:15:09.677Z,3.94
2023-02-26T17:16:09.628Z,3.94
2023-02-26T17:17:09.582Z,3.87
2023-02-26T17:18:09.584Z,3.90
2023-02-26T17:19:09.585Z,3.91
2023-02-26T17:20:14.571Z,3.87
2023-02-26T17:21:09.532Z,3.83
2023-02-26T17:22:09.526Z,3.83
2023-02-26T17:23:09.525Z,3.76
2023-02-26T17:24:09.504Z,3.88
2023-02-26T17:25:09.489Z,3.90
2023-02-26T17:26:09.483Z,3.91
2023-02-26T17:27:09.471Z,3.90
2023-02-26T17:28:09.466Z,3.90
2023-02-26T17:29:09.453Z,3.87
2023-02-26T17:30:09.454Z,3.80
2023-02-26T17:31:14.495Z,3.90
2023-02-26T17:32:09.484Z,3.87
2023-02-26T17:33:09.409Z,3.83
2023-02-26T17:34:09.389Z,3.78
2023-02-26T17:35:09.377Z,3.84
2023-02-26T17:36:09.375Z,3.75
2023-02-26T17:37:09.372Z,3.73
2023-02-26T17:38:09.352Z,3.78
2023-02-26T17:39:09.331Z,3.79
2023-02-26T17:40:09.326Z,3.78
2023-02-26T17:41:09.311Z,3.78
2023-02-26T17:42:14.333Z,3.78
2023-02-26T17:43:09.315Z,3.75
2023-02-26T17:44:09.276Z,3.83
2023-02-26T17:45:09.270Z,3.78
2023-02-26T17:46:09.336Z,3.75
2023-02-26T17:47:09.241Z,3.68
2023-02-26T17:48:09.251Z,3.65
2023-02-26T17:49:09.220Z,3.70
2023-02-26T17:50:09.214Z,3.72
2023-02-26T17:51:09.197Z,3.70
2023-02-26T17:52:09.192Z,3.60
2023-02-26T17:53:14.207Z,3.62
2023-02-26T17:54:09.166Z,3.66
2023-02-26T17:55:09.155Z,3.68
2023-02-26T17:56:09.156Z,3.61
2023-02-26T17:57:09.134Z,3.60
2023-02-26T17:58:09.135Z,3.61
2023-02-26T17:59:09.120Z,3.60
2023-02-26T18:00:09.103Z,3.62
2023-02-26T18:01:09.133Z,3.66
2023-02-26T18:02:10.092Z,3.58
2023-02-26T18:03:09.081Z,3.54
2023-02-26T18:04:14.184Z,3.60
2023-02-26T18:05:09.045Z,3.60
2023-02-26T18:06:09.037Z,3.68
2023-02-26T18:07:09.029Z,3.52
2023-02-26T18:08:09.039Z,3.55
2023-02-26T18:09:09.026Z,3.57
2023-02-26T18:10:08.994Z,3.58
2023-02-26T18:11:08.982Z,3.55
2023-02-26T18:12:08.968Z,3.60
2023-02-26T18:13:08.968Z,3.54
2023-02-26T18:14:08.950Z,3.52
2023-02-26T18:15:13.963Z,3.52
2023-02-26T18:16:08.928Z,3.55
2023-02-26T18:17:08.989Z,3.43
2023-02-26T18:18:08.926Z,3.48
2023-02-26T18:19:08.904Z,3.52
2023-02-26T18:20:08.882Z,3.60
2023-02-26T18:21:08.874Z,3.55
2023-02-26T18:22:08.858Z,3.51
2023-02-26T18:23:08.852Z,3.48
2023-02-26T18:24:08.874Z,3.50
2023-02-26T18:25:08.841Z,3.32
2023-02-26T18:26:13.868Z,3.32
2023-02-26T18:27:08.802Z,3.33
2023-02-26T18:28:08.791Z,3.48
2023-02-26T18:29:08.792Z,3.35
2023-02-26T18:30:08.767Z,3.35
2023-02-26T18:31:08.976Z,3.35
2023-02-26T18:32:08.992Z,3.35
2023-02-26T18:33:08.735Z,3.35
2023-02-26T18:34:08.787Z,3.31
2023-02-26T18:35:08.719Z,3.48
2023-02-26T18:36:08.695Z,3.35
2023-02-26T18:37:13.710Z,3.33
2023-02-26T18:38:08.675Z,3.35
2023-02-26T18:39:08.696Z,3.26
2023-02-26T18:40:08.660Z,3.32
2023-02-26T18:41:08.650Z,3.36
2023-02-26T18:42:08.656Z,3.21
2023-02-26T18:43:08.622Z,3.21
2023-02-26T18:44:08.630Z,3.29
2023-02-26T18:45:08.598Z,3.24
2023-02-26T18:46:08.627Z,3.28
2023-02-26T18:47:08.605Z,3.26
2023-02-26T18:48:13.595Z,3.23
2023-02-26T18:49:08.567Z,3.26
2023-02-26T18:50:08.585Z,3.20
2023-02-26T18:51:08.534Z,3.20
2023-02-26T18:52:08.519Z,3.24
2023-02-26T18:53:08.510Z,3.14
2023-02-26T18:54:08.509Z,3.20
2023-02-26T18:55:08.492Z,3.03
2023-02-26T18:56:08.472Z,3.06
2023-02-26T18:57:08.463Z,3.05
2023-02-26T18:58:08.455Z,3.03
2023-02-26T18:59:13.473Z,3.00
2023-02-26T19:00:08.427Z,3.03
2023-02-26T19:01:08.458Z,2.97
2023-02-26T19:02:08.454Z,2.97
2023-02-26T19:03:08.405Z,2.90
2023-02-26T19:04:08.395Z,2.97
2023-02-26T19:05:08.377Z,2.92
2023-02-26T19:06:08.379Z,2.96
2023-02-26T19:07:08.351Z,2.95
2023-02-26T19:08:08.337Z,2.89
2023-02-26T19:09:08.335Z,2.82
2023-02-26T19:10:13.356Z,2.85
2023-02-26T19:11:08.327Z,2.85
2023-02-26T19:12:10.208Z,2.81
2023-02-26T19:13:08.286Z,2.78
2023-02-26T19:14:08.285Z,2.82
2023-02-26T19:15:08.264Z,2.77
2023-02-26T19:16:08.355Z,2.72
2023-02-26T19:17:08.239Z,2.78
2023-02-26T19:18:08.225Z,2.67
2023-02-26T19:19:08.239Z,2.69
2023-02-26T19:20:08.223Z,2.71
2023-02-26T19:21:13.253Z,2.75
2023-02-26T19:22:08.180Z,2.69
2023-02-26T19:23:08.180Z,2.71
2023-02-26T19:24:08.164Z,2.59
2023-02-26T19:25:08.160Z,2.71
2023-02-26T19:26:08.139Z,2.72
2023-02-26T19:27:08.151Z,2.61
2023-02-26T19:28:08.115Z,2.59
2023-02-26T19:29:08.134Z,2.56
2023-02-26T19:30:08.135Z,2.60
2023-02-26T19:31:08.225Z,2.61
2023-02-26T19:32:13.277Z,2.61
2023-02-26T19:33:08.067Z,2.54
2023-02-26T19:34:08.069Z,2.57
2023-02-26T19:35:08.126Z,2.59
2023-02-26T19:36:08.071Z,2.56
2023-02-26T19:37:08.062Z,2.52
2023-02-26T19:38:08.009Z,2.54
2023-02-26T19:39:08.101Z,2.49
2023-02-26T19:40:08.112Z,2.52
2023-02-26T19:41:08.160Z,2.45
2023-02-26T19:42:08.100Z,2.45
2023-02-26T19:43:13.117Z,2.45
2023-02-26T19:44:08.345Z,2.39
2023-02-26T19:45:08.176Z,2.36